Time;durP1;ratioP1;P1;durP2;ratioP2;P2;SDS_P1;SDS_P2;PMS_P1;PMS_P2;Temp;Humidity;BMP_temperature;BMP_pressure;BME280_temperature;BME280_humidity;BME280_pressure;Samples;Min_cycle;Max_cycle;Signal;HPM_P1;HPM_P2
2023/11/30 00:00:58;;;;;;;3.30;2.35;;;14.70;65.40;;;;;;5093620;28;20062;-64
2023/11/30 00:03:23;;;;;;;3.58;1.95;;;14.70;65.50;;;;;;5096095;28;20028;-66
2023/11/30 00:05:49;;;;;;;1.85;1.52;;;14.70;65.50;;;;;;5094517;28;20039;-66
2023/11/30 00:08:14;;;;;;;5.40;1.90;;;14.70;65.60;;;;;;5094686;28;20394;-66
2023/11/30 00:10:40;;;;;;;2.17;1.75;;;14.70;65.40;;;;;;5098451;28;20060;-66
2023/11/30 00:13:05;;;;;;;3.17;1.90;;;14.80;65.70;;;;;;5100145;28;20024;-67
2023/11/30 00:15:31;;;;;;;3.15;1.60;;;14.80;65.60;;;;;;5096933;28;20030;-67
2023/11/30 00:17:56;;;;;;;2.88;1.80;;;14.80;65.80;;;;;;5099778;28;20479;-67
2023/11/30 00:20:22;;;;;;;1.63;1.50;;;14.80;65.70;;;;;;5098529;28;20039;-67
2023/11/30 00:22:47;;;;;;;3.17;1.92;;;14.80;65.70;;;;;;5102460;28;20028;-67
2023/11/30 00:25:13;;;;;;;3.60;1.77;;;14.80;65.90;;;;;;5097656;28;20028;-67
2023/11/30 00:27:38;;;;;;;2.60;1.80;;;14.90;66.00;;;;;;5101056;28;20536;-67
2023/11/30 00:30:04;;;;;;;5.68;1.75;;;14.80;65.90;;;;;;5088327;28;20074;-67
2023/11/30 00:32:29;;;;;;;5.03;1.90;;;14.80;65.90;;;;;;5095473;28;20036;-67
2023/11/30 00:34:55;;;;;;;1.98;1.55;;;14.80;65.70;;;;;;5097566;28;20110;-67
2023/11/30 00:37:20;;;;;;;2.75;1.80;;;14.80;65.80;;;;;;5097587;28;20044;-67
2023/11/30 00:39:46;;;;;;;3.33;1.75;;;14.90;66.00;;;;;;5101427;28;20553;-67
2023/11/30 00:42:11;;;;;;;5.28;1.63;;;14.90;66.00;;;;;;5098499;28;20115;-64
2023/11/30 00:44:37;;;;;;;1.92;1.30;;;14.90;65.90;;;;;;5098110;28;20091;-66
2023/11/30 00:47:02;;;;;;;3.30;1.38;;;14.90;66.20;;;;;;5097157;28;20036;-67
2023/11/30 00:49:28;;;;;;;1.88;1.58;;;14.90;65.90;;;;;;5086232;28;20517;-66
2023/11/30 00:51:54;;;;;;;1.77;1.40;;;14.90;66.50;;;;;;5101278;28;20611;-66
2023/11/30 00:54:19;;;;;;;5.35;1.52;;;14.90;66.10;;;;;;5093257;28;20024;-66
2023/11/30 00:56:44;;;;;;;3.70;1.42;;;14.90;65.70;;;;;;5096347;28;20422;-67
2023/11/30 00:59:10;;;;;;;2.90;1.30;;;14.90;65.70;;;;;;5096536;28;20032;-65
2023/11/30 01:01:35;;;;;;;1.38;1.27;;;14.90;65.90;;;;;;5098158;28;20024;-67
2023/11/30 01:04:01;;;;;;;2.10;1.40;;;14.90;65.80;;;;;;5100718;28;20700;-66
2023/11/30 01:06:26;;;;;;;1.95;1.35;;;15.00;65.30;;;;;;5099850;28;20027;-66
2023/11/30 01:08:52;;;;;;;2.45;1.30;;;15.00;65.00;;;;;;5095995;28;20024;-66
2023/11/30 01:11:17;;;;;;;3.72;1.48;;;15.00;65.50;;;;;;5095007;28;20028;-63
2023/11/30 01:13:44;;;;;;;2.17;1.67;;;15.10;65.30;;;;;;5101031;28;20035;-68
2023/11/30 01:16:09;;;;;;;3.10;1.45;;;15.10;65.50;;;;;;5096541;28;20550;-68
2023/11/30 01:18:35;;;;;;;3.83;1.13;;;15.10;65.80;;;;;;5098568;28;20115;-67
2023/11/30 01:21:00;;;;;;;2.42;1.58;;;15.10;66.10;;;;;;5098588;28;20043;-65
2023/11/30 01:23:26;;;;;;;3.03;1.58;;;15.10;65.90;;;;;;5099281;28;20024;-65
2023/11/30 01:25:51;;;;;;;2.00;1.38;;;15.10;65.70;;;;;;5101501;28;20547;-67
2023/11/30 01:28:17;;;;;;;1.88;1.38;;;15.10;65.70;;;;;;5098059;28;20048;-66
2023/11/30 01:30:42;;;;;;;2.20;1.25;;;15.00;65.90;;;;;;5099643;28;20035;-68
2023/11/30 01:33:08;;;;;;;5.15;1.35;;;15.00;66.30;;;;;;5107785;28;20023;-66
2023/11/30 01:35:33;;;;;;;3.75;1.20;;;15.00;66.10;;;;;;5104750;28;20031;-67
2023/11/30 01:37:59;;;;;;;1.95;1.02;;;15.10;65.80;;;;;;5099582;28;20032;-67
2023/11/30 01:40:24;;;;;;;3.25;1.63;;;15.10;65.50;;;;;;5103706;28;20028;-68
2023/11/30 01:42:50;;;;;;;8.10;2.10;;;15.10;65.80;;;;;;5095287;28;20039;-67
2023/11/30 01:45:15;;;;;;;2.53;1.50;;;15.10;65.40;;;;;;5093649;28;20030;-68
2023/11/30 01:47:42;;;;;;;1.65;1.10;;;15.10;64.90;;;;;;5105366;28;20031;-66
2023/11/30 01:50:08;;;;;;;1.98;1.20;;;15.10;65.20;;;;;;5097323;28;20794;-67
2023/11/30 01:52:33;;;;;;;2.17;1.38;;;15.10;65.00;;;;;;5088647;28;20410;-67
2023/11/30 01:55:01;;;;;;;1.73;1.10;;;15.10;65.30;;;;;;5094127;28;20028;-66
2023/11/30 01:57:28;;;;;;;3.30;1.23;;;15.20;65.30;;;;;;5096388;28;20028;-63
2023/11/30 01:59:54;;;;;;;12.32;1.60;;;15.20;65.30;;;;;;5095788;28;20032;-64
2023/11/30 02:02:20;;;;;;;3.30;1.17;;;15.20;65.80;;;;;;5102068;28;20433;-67
2023/11/30 02:04:51;;;;;;;4.80;1.40;;;15.10;65.00;;;;;;5099085;28;20039;-67
2023/11/30 02:07:16;;;;;;;4.25;1.48;;;15.30;65.60;;;;;;5101209;28;20032;-65
2023/11/30 02:09:42;;;;;;;6.90;1.35;;;15.30;64.60;;;;;;5094556;28;20057;-67
2023/11/30 02:12:08;;;;;;;4.03;1.00;;;15.30;65.10;;;;;;5101378;28;20104;-66
2023/11/30 02:14:34;;;;;;;3.47;1.45;;;15.30;65.30;;;;;;5103996;28;20035;-65
2023/11/30 02:17:00;;;;;;;6.78;1.70;;;15.30;65.40;;;;;;5095607;28;20028;-67
2023/11/30 02:19:25;;;;;;;3.45;1.10;;;15.20;64.90;;;;;;5099228;28;20024;-66
2023/11/30 02:21:51;;;;;;;2.15;1.25;;;15.20;65.20;;;;;;5097691;28;20046;-67
2023/11/30 02:24:17;;;;;;;2.15;0.90;;;15.20;65.30;;;;;;5096101;28;20144;-67
2023/11/30 02:26:42;;;;;;;4.53;2.35;;;15.10;65.40;;;;;;5098171;28;20445;-67
2023/11/30 02:29:08;;;;;;;2.67;1.02;;;15.20;65.50;;;;;;5099160;28;20517;-67
2023/11/30 02:31:33;;;;;;;2.58;1.02;;;15.10;65.50;;;;;;5096562;28;20130;-66
2023/11/30 02:33:59;;;;;;;1.35;1.00;;;15.20;65.20;;;;;;5097730;28;20414;-67
2023/11/30 02:36:24;;;;;;;1.30;1.00;;;15.10;65.80;;;;;;5096826;28;20020;-67
2023/11/30 02:38:50;;;;;;;0.63;0.63;;;15.10;65.20;;;;;;5094486;28;20031;-67
2023/11/30 02:41:17;;;;;;;2.42;1.20;;;15.10;65.30;;;;;;5097803;28;20036;-67
2023/11/30 02:43:43;;;;;;;1.40;0.80;;;15.10;65.50;;;;;;5098328;28;20027;-63
2023/11/30 02:46:09;;;;;;;2.75;1.20;;;15.10;65.70;;;;;;5100639;28;20023;-67
2023/11/30 02:48:36;;;;;;;1.52;0.90;;;15.10;65.50;;;;;;5101712;28;20032;-68
2023/11/30 02:51:02;;;;;;;1.55;1.05;;;15.10;65.40;;;;;;5092738;28;20182;-67
2023/11/30 02:53:27;;;;;;;1.60;0.85;;;15.10;65.80;;;;;;5100326;28;20111;-67
2023/11/30 02:55:53;;;;;;;1.45;0.90;;;15.10;65.40;;;;;;5095170;28;20035;-68
2023/11/30 02:58:18;;;;;;;5.93;1.85;;;15.10;65.20;;;;;;5088909;28;20030;-66
2023/11/30 03:00:44;;;;;;;5.43;1.20;;;15.20;65.90;;;;;;5090414;28;20040;-68
2023/11/30 03:03:09;;;;;;;3.80;1.33;;;15.30;66.10;;;;;;5099613;28;20028;-68
2023/11/30 03:05:35;;;;;;;2.72;1.60;;;15.30;65.40;;;;;;5103626;28;20043;-67
2023/11/30 03:08:00;;;;;;;4.90;1.33;;;15.30;65.30;;;;;;5097415;27;20084;-67
2023/11/30 03:10:26;;;;;;;2.13;1.02;;;15.20;64.40;;;;;;5096520;28;20028;-67
2023/11/30 03:12:51;;;;;;;1.20;0.90;;;15.20;65.10;;;;;;5097082;28;20035;-68
2023/11/30 03:15:18;;;;;;;2.13;1.13;;;15.20;65.10;;;;;;5096082;28;20398;-68
2023/11/30 03:17:43;;;;;;;2.13;1.10;;;15.20;65.20;;;;;;5099307;28;20031;-66
2023/11/30 03:20:10;;;;;;;2.00;1.30;;;15.20;64.90;;;;;;5098222;28;20091;-67
2023/11/30 03:22:35;;;;;;;3.55;0.98;;;15.20;64.80;;;;;;5096039;28;20043;-68
2023/11/30 03:25:00;;;;;;;2.50;1.20;;;15.20;65.00;;;;;;5094668;28;20024;-68
2023/11/30 03:27:26;;;;;;;1.38;0.90;;;15.30;65.10;;;;;;5089084;28;20407;-67
2023/11/30 03:29:51;;;;;;;2.50;1.08;;;15.30;65.10;;;;;;5089683;28;20023;-68
2023/11/30 03:32:17;;;;;;;3.50;1.35;;;15.30;65.10;;;;;;5092348;28;20045;-62
2023/11/30 03:34:42;;;;;;;1.85;1.00;;;15.30;65.10;;;;;;5094367;28;20039;-66
2023/11/30 03:37:08;;;;;;;1.25;0.90;;;15.30;65.20;;;;;;5098039;28;20383;-65
2023/11/30 03:39:33;;;;;;;1.38;1.10;;;15.30;65.20;;;;;;5095320;28;20118;-69
2023/11/30 03:41:59;;;;;;;1.13;0.93;;;15.30;65.30;;;;;;5096034;28;20050;-67
2023/11/30 03:44:24;;;;;;;1.17;0.88;;;15.30;65.20;;;;;;5097518;28;20027;-68
2023/11/30 03:46:50;;;;;;;1.25;1.05;;;15.30;65.30;;;;;;5097768;28;20032;-68
2023/11/30 03:49:15;;;;;;;1.38;1.05;;;15.30;65.50;;;;;;5091866;28;20036;-69
2023/11/30 03:51:40;;;;;;;1.05;0.80;;;15.30;65.70;;;;;;5094082;28;20013;-67
2023/11/30 03:54:06;;;;;;;1.45;1.10;;;15.30;65.60;;;;;;5104682;28;20105;-68
2023/11/30 03:56:32;;;;;;;1.58;0.75;;;15.30;65.30;;;;;;5094826;28;20035;-67
2023/11/30 03:58:58;;;;;;;0.95;0.85;;;15.30;65.40;;;;;;5104241;28;20497;-65
2023/11/30 04:01:23;;;;;;;1.75;1.10;;;15.30;65.00;;;;;;5099193;28;20031;-65
2023/11/30 04:03:49;;;;;;;2.83;1.08;;;15.30;65.20;;;;;;5094461;28;20035;-67
2023/11/30 04:06:22;;;;;;;7.38;1.55;;;15.30;65.40;;;;;;5104513;28;20116;-69
2023/11/30 04:08:49;;;;;;;1.70;1.20;;;15.30;65.80;;;;;;5089820;28;20114;-69
2023/11/30 04:11:17;;;;;;;2.10;1.02;;;15.30;65.20;;;;;;5099010;28;20046;-67
2023/11/30 04:13:45;;;;;;;0.90;0.80;;;15.30;65.10;;;;;;5102436;28;20119;-68
2023/11/30 04:16:10;;;;;;;2.00;1.23;;;15.30;64.90;;;;;;5096155;28;20028;-67
2023/11/30 04:18:36;;;;;;;1.58;1.10;;;15.30;65.00;;;;;;5083364;28;20024;-67
2023/11/30 04:21:01;;;;;;;2.47;0.80;;;15.30;65.00;;;;;;5097397;28;20043;-69
2023/11/30 04:23:27;;;;;;;1.67;1.00;;;15.30;65.10;;;;;;5091413;28;20035;-69
2023/11/30 04:25:52;;;;;;;1.40;0.88;;;15.30;65.00;;;;;;5087338;28;20265;-68
2023/11/30 04:28:18;;;;;;;1.55;1.15;;;15.30;65.20;;;;;;5088368;28;20383;-67
2023/11/30 04:30:43;;;;;;;1.90;1.00;;;15.30;65.00;;;;;;5094671;28;20123;-68
2023/11/30 04:33:09;;;;;;;2.20;1.20;;;15.30;65.00;;;;;;5097154;28;20390;-68
2023/11/30 04:35:34;;;;;;;1.75;1.10;;;15.30;65.00;;;;;;5088203;28;20035;-69
2023/11/30 04:38:00;;;;;;;3.17;1.10;;;15.30;65.00;;;;;;5087882;28;20447;-67
2023/11/30 04:40:25;;;;;;;1.83;1.17;;;15.30;65.00;;;;;;5092635;28;20024;-67
2023/11/30 04:42:51;;;;;;;1.65;0.88;;;15.30;65.00;;;;;;5090512;28;20170;-67
2023/11/30 04:45:17;;;;;;;3.22;1.30;;;15.30;65.00;;;;;;5101228;28;20023;-67
2023/11/30 04:47:43;;;;;;;2.92;0.80;;;15.30;66.00;;;;;;5091253;28;20039;-67
2023/11/30 04:50:08;;;;;;;8.80;1.63;;;15.80;61.50;;;;;;5094730;28;20028;-67
2023/11/30 04:52:34;;;;;;;7.38;1.60;;;16.00;62.10;;;;;;5094928;28;21530;-65
2023/11/30 04:54:59;;;;;;;3.35;1.02;;;15.90;63.40;;;;;;5090663;28;20029;-66
2023/11/30 04:57:24;;;;;;;1.83;1.02;;;15.70;63.70;;;;;;5091333;28;20024;-68
2023/11/30 04:59:51;;;;;;;3.10;1.30;;;15.60;64.00;;;;;;5096751;28;20119;-67
2023/11/30 05:02:16;;;;;;;3.83;1.35;;;15.50;64.00;;;;;;5096223;28;20039;-67
2023/11/30 05:04:42;;;;;;;1.70;0.93;;;15.50;64.30;;;;;;5090655;28;20313;-68
2023/11/30 05:07:07;;;;;;;2.13;0.85;;;15.50;64.40;;;;;;5100590;28;20029;-67
2023/11/30 05:09:33;;;;;;;1.45;0.95;;;15.40;64.30;;;;;;5105348;28;20364;-66
2023/11/30 05:11:58;;;;;;;2.72;0.93;;;15.40;64.50;;;;;;5094265;28;20020;-66
2023/11/30 05:14:24;;;;;;;2.17;1.00;;;15.40;64.50;;;;;;5095595;28;20024;-67
2023/11/30 05:16:50;;;;;;;1.20;1.10;;;15.40;64.60;;;;;;5092902;28;20028;-66
2023/11/30 05:19:15;;;;;;;1.10;1.00;;;15.40;64.60;;;;;;5099957;28;20031;-66
2023/11/30 05:21:41;;;;;;;1.80;1.00;;;15.40;64.80;;;;;;5097337;28;20089;-68
2023/11/30 05:24:06;;;;;;;0.80;0.80;;;15.40;64.90;;;;;;5099113;28;20025;-67
2023/11/30 05:26:32;;;;;;;2.17;0.82;;;15.40;64.70;;;;;;5098069;28;20038;-67
2023/11/30 05:28:57;;;;;;;0.80;0.80;;;15.40;64.90;;;;;;5095355;28;20024;-67
2023/11/30 05:31:23;;;;;;;2.17;0.77;;;15.40;64.60;;;;;;5097480;28;20126;-67
2023/11/30 05:33:48;;;;;;;1.08;0.80;;;15.40;64.70;;;;;;5071301;28;20039;-67
2023/11/30 05:36:14;;;;;;;1.00;0.80;;;15.30;64.50;;;;;;5097376;28;20488;-68
2023/11/30 05:38:39;;;;;;;1.17;0.90;;;15.40;64.60;;;;;;5092852;28;20113;-67
2023/11/30 05:41:05;;;;;;;1.35;0.85;;;15.40;64.30;;;;;;5092695;28;20036;-67
2023/11/30 05:43:32;;;;;;;2.97;0.82;;;15.40;64.50;;;;;;5099907;28;20297;-68
2023/11/30 05:45:57;;;;;;;11.00;1.50;;;15.40;65.10;;;;;;5097208;28;20015;-67
2023/11/30 05:48:23;;;;;;;5.78;1.55;;;15.40;65.10;;;;;;5102045;28;20030;-67
2023/11/30 05:50:48;;;;;;;4.85;1.48;;;15.40;64.50;;;;;;5088828;28;20036;-68
2023/11/30 05:53:14;;;;;;;3.75;1.00;;;15.50;64.70;;;;;;5090752;28;20039;-66
2023/11/30 05:55:39;;;;;;;10.15;1.40;;;15.40;64.60;;;;;;5096478;28;20028;-68
2023/11/30 05:58:05;;;;;;;6.28;1.17;;;15.60;64.70;;;;;;5100045;28;20073;-68
2023/11/30 06:00:30;;;;;;;11.15;2.22;;;15.60;63.90;;;;;;5096505;28;20043;-69
2023/11/30 06:02:56;;;;;;;7.35;1.40;;;15.60;64.00;;;;;;5096009;28;20093;-67
2023/11/30 06:05:21;;;;;;;2.85;1.00;;;15.50;64.10;;;;;;5090673;28;20513;-69
2023/11/30 06:07:46;;;;;;;3.13;1.10;;;15.40;64.00;;;;;;5099706;28;20110;-68
2023/11/30 06:10:13;;;;;;;3.35;1.30;;;15.40;64.20;;;;;;5097012;28;20031;-70
2023/11/30 06:12:39;;;;;;;2.97;1.05;;;15.40;64.20;;;;;;5100772;28;20024;-70
2023/11/30 06:15:05;;;;;;;3.38;1.00;;;15.30;64.10;;;;;;5106893;28;20042;-67
2023/11/30 06:17:30;;;;;;;0.68;0.68;;;15.30;63.90;;;;;;5089891;28;20028;-68
2023/11/30 06:19:56;;;;;;;2.70;0.90;;;15.30;64.00;;;;;;5095179;28;20028;-65
2023/11/30 06:22:22;;;;;;;1.05;0.80;;;15.20;64.50;;;;;;5094421;28;20024;-69
2023/11/30 06:24:47;;;;;;;2.15;1.00;;;15.30;63.90;;;;;;5088776;28;20513;-67
2023/11/30 06:27:13;;;;;;;2.00;0.90;;;15.20;64.00;;;;;;5096808;28;20023;-68
2023/11/30 06:29:38;;;;;;;4.85;1.42;;;15.20;63.90;;;;;;5099555;28;20032;-69
2023/11/30 06:32:04;;;;;;;3.15;1.50;;;15.40;62.80;;;;;;5091014;28;20062;-69
2023/11/30 06:34:30;;;;;;;2.78;2.28;;;15.60;62.00;;;;;;5094033;28;20024;-68
2023/11/30 06:36:55;;;;;;;3.53;2.00;;;15.50;60.90;;;;;;5093568;28;20030;-69
2023/11/30 06:39:22;;;;;;;2.90;2.15;;;15.30;60.80;;;;;;5097291;28;20035;-68
2023/11/30 06:41:48;;;;;;;3.95;2.38;;;15.30;60.80;;;;;;5099732;28;20038;-69
2023/11/30 06:44:13;;;;;;;2.70;2.15;;;15.20;60.50;;;;;;5099354;28;20028;-67
2023/11/30 06:46:42;;;;;;;4.53;2.53;;;15.10;60.30;;;;;;5090143;28;20020;-68
2023/11/30 06:49:08;;;;;;;2.50;2.15;;;15.00;60.30;;;;;;5098173;28;20031;-68
2023/11/30 06:51:33;;;;;;;3.85;2.03;;;15.00;60.10;;;;;;5090063;28;20060;-66
2023/11/30 06:53:59;;;;;;;3.35;2.40;;;15.00;60.20;;;;;;5094562;28;20054;-66
2023/11/30 06:56:24;;;;;;;3.10;2.20;;;15.00;59.90;;;;;;5075903;28;20409;-66
2023/11/30 06:58:50;;;;;;;2.50;2.15;;;15.00;60.10;;;;;;5102275;28;20051;-67
2023/11/30 07:01:16;;;;;;;5.50;2.92;;;14.90;59.80;;;;;;5095914;28;20032;-67
2023/11/30 07:03:42;;;;;;;3.75;2.70;;;14.90;59.80;;;;;;5094394;28;20024;-64
2023/11/30 07:06:07;;;;;;;7.80;4.15;;;14.90;60.00;;;;;;5096720;28;20039;-67
2023/11/30 07:08:33;;;;;;;43.38;14.52;;;14.80;60.10;;;;;;5088590;28;20032;-65
2023/11/30 07:10:58;;;;;;;41.00;13.23;;;15.10;64.20;;;;;;5095394;28;20024;-66
2023/11/30 07:13:24;;;;;;;30.00;12.05;;;15.70;62.20;;;;;;5086432;28;20395;-67
2023/11/30 07:15:49;;;;;;;27.63;11.32;;;16.10;61.10;;;;;;5090086;28;20402;-67
2023/11/30 07:18:15;;;;;;;36.60;11.07;;;16.50;59.90;;;;;;5087337;28;20039;-65
2023/11/30 07:20:41;;;;;;;29.90;12.10;;;17.10;58.70;;;;;;5095927;28;20058;-66
2023/11/30 07:23:07;;;;;;;23.60;11.30;;;17.60;57.70;;;;;;5095088;28;20038;-66
2023/11/30 07:25:33;;;;;;;27.80;10.25;;;18.00;56.90;;;;;;5098950;28;20117;-66
2023/11/30 07:27:59;;;;;;;29.23;9.60;;;18.30;56.50;;;;;;5095381;28;20504;-66
2023/11/30 07:30:25;;;;;;;21.90;9.45;;;18.60;55.80;;;;;;5095044;28;20054;-66
2023/11/30 07:32:53;;;;;;;23.10;8.68;;;18.90;55.40;;;;;;5103208;28;20141;-67
2023/11/30 07:35:18;;;;;;;22.10;8.77;;;19.10;55.20;;;;;;5095781;28;20092;-67
2023/11/30 07:37:44;;;;;;;23.45;9.90;;;19.30;54.90;;;;;;5088763;28;20036;-66
2023/11/30 07:40:10;;;;;;;20.58;9.00;;;19.50;54.70;;;;;;5087253;28;20039;-66
2023/11/30 07:42:35;;;;;;;18.27;8.27;;;19.50;54.60;;;;;;5102429;28;20030;-67
2023/11/30 07:45:02;;;;;;;21.75;8.88;;;19.70;54.50;;;;;;5095926;28;20027;-66
2023/11/30 07:47:28;;;;;;;18.73;7.45;;;19.80;54.30;;;;;;5093242;28;20432;-66
2023/11/30 07:49:54;;;;;;;18.48;8.20;;;19.90;54.30;;;;;;5087411;28;20212;-67
2023/11/30 07:52:19;;;;;;;16.55;7.68;;;19.90;54.30;;;;;;5093996;28;20028;-67
2023/11/30 07:54:45;;;;;;;18.65;7.82;;;19.80;54.60;;;;;;5100839;28;20042;-66
2023/11/30 07:57:11;;;;;;;17.83;7.60;;;19.70;54.80;;;;;;5095434;28;20458;-66
2023/11/30 07:59:37;;;;;;;15.60;6.95;;;19.60;55.10;;;;;;5092740;28;20044;-67
2023/11/30 08:02:03;;;;;;;22.73;9.20;;;19.50;55.50;;;;;;5092121;28;20085;-67
2023/11/30 08:04:29;;;;;;;19.25;7.97;;;19.30;55.70;;;;;;5097445;28;20493;-66
2023/11/30 08:06:55;;;;;;;15.48;6.65;;;19.30;56.00;;;;;;5098252;28;20033;-67
2023/11/30 08:09:21;;;;;;;13.73;7.05;;;19.10;56.30;;;;;;5102678;28;20583;-66
2023/11/30 08:11:46;;;;;;;15.75;7.22;;;19.00;56.60;;;;;;5100506;28;20028;-66
2023/11/30 08:14:12;;;;;;;15.18;6.95;;;18.90;57.60;;;;;;5103806;28;20085;-65
2023/11/30 08:16:37;;;;;;;10.98;5.75;;;18.80;57.20;;;;;;5095700;28;20055;-66
2023/11/30 08:19:03;;;;;;;18.88;7.03;;;18.70;57.40;;;;;;5097445;28;20020;-65
2023/11/30 08:21:28;;;;;;;14.90;6.57;;;18.60;57.80;;;;;;5102748;28;20035;-66
2023/11/30 08:23:54;;;;;;;14.02;6.65;;;18.50;58.00;;;;;;5097755;28;20116;-65
2023/11/30 08:26:20;;;;;;;15.73;6.47;;;18.40;58.20;;;;;;5099958;28;20595;-66
2023/11/30 08:28:46;;;;;;;12.73;6.47;;;18.30;58.40;;;;;;5095268;28;20303;-65
2023/11/30 08:31:12;;;;;;;15.25;6.65;;;18.20;58.60;;;;;;5100955;28;20056;-65
2023/11/30 08:33:37;;;;;;;12.98;7.03;;;18.10;58.70;;;;;;5098189;28;20513;-65
2023/11/30 08:36:04;;;;;;;13.07;5.88;;;18.00;59.10;;;;;;5095434;28;20031;-65
2023/11/30 08:38:36;;;;;;;14.50;5.53;;;18.00;59.30;;;;;;5096932;28;20105;-65
2023/11/30 08:41:02;;;;;;;14.30;5.63;;;17.90;59.40;;;;;;5101477;28;20598;-62
2023/11/30 08:43:28;;;;;;;11.45;5.28;;;17.80;59.60;;;;;;5095484;28;20036;-66
2023/11/30 08:45:54;;;;;;;12.02;6.43;;;17.70;59.90;;;;;;5095462;28;20107;-66
2023/11/30 08:48:20;;;;;;;11.02;5.72;;;17.70;59.90;;;;;;5096206;28;20032;-66
2023/11/30 08:50:46;;;;;;;10.00;5.65;;;17.60;59.90;;;;;;5091215;28;20758;-66
2023/11/30 08:53:12;;;;;;;9.02;5.18;;;17.50;60.00;;;;;;5027543;28;20082;-66
2023/11/30 08:55:37;;;;;;;10.82;5.70;;;17.50;60.10;;;;;;5086825;28;20055;-66
2023/11/30 08:58:03;;;;;;;13.38;5.80;;;17.40;60.20;;;;;;5097934;28;20042;-65
2023/11/30 09:00:28;;;;;;;11.32;5.10;;;17.40;60.30;;;;;;5101040;28;20498;-65
2023/11/30 09:02:56;;;;;;;9.40;5.18;;;17.30;60.50;;;;;;5097621;28;20502;-65
2023/11/30 09:05:22;;;;;;;11.32;4.88;;;17.30;60.60;;;;;;5096782;28;20052;-65
2023/11/30 09:07:47;;;;;;;12.90;4.68;;;17.20;60.70;;;;;;5099122;28;20581;-66
2023/11/30 09:10:12;;;;;;;10.93;4.70;;;17.20;60.50;;;;;;5098106;28;20119;-64
2023/11/30 09:12:38;;;;;;;14.40;5.75;;;17.10;60.70;;;;;;5095006;28;20034;-65
2023/11/30 09:15:08;;;;;;;11.27;5.10;;;17.10;60.80;;;;;;5090874;28;20543;-65
2023/11/30 09:17:34;;;;;;;10.60;5.50;;;17.10;60.90;;;;;;5093520;28;20034;-65
2023/11/30 09:20:00;;;;;;;11.60;4.72;;;17.10;60.90;;;;;;5096873;28;20036;-65
2023/11/30 09:22:26;;;;;;;9.30;4.50;;;17.00;60.70;;;;;;5096269;28;20553;-66
2023/11/30 09:24:51;;;;;;;10.00;4.70;;;17.00;60.70;;;;;;5100136;28;20031;-66
2023/11/30 09:27:17;;;;;;;9.30;4.55;;;17.00;60.90;;;;;;5099727;28;20040;-65
2023/11/30 09:29:42;;;;;;;10.98;5.22;;;16.90;61.00;;;;;;5095462;28;20053;-64
2023/11/30 09:32:08;;;;;;;7.70;4.57;;;16.90;61.10;;;;;;5078677;28;20028;-65
2023/11/30 09:34:33;;;;;;;9.15;4.55;;;16.90;61.00;;;;;;5102794;28;20390;-65
2023/11/30 09:36:59;;;;;;;9.63;4.47;;;16.80;61.10;;;;;;5101332;28;20107;-66
2023/11/30 09:39:24;;;;;;;8.65;4.32;;;16.80;61.10;;;;;;5106516;28;20474;-65
2023/11/30 09:41:51;;;;;;;8.05;4.20;;;16.70;61.00;;;;;;5106744;28;20019;-66
2023/11/30 09:44:17;;;;;;;8.18;4.53;;;16.70;61.20;;;;;;5103300;28;20389;-65
2023/11/30 09:46:42;;;;;;;10.70;4.75;;;16.70;61.20;;;;;;5106583;28;20081;-66
2023/11/30 09:49:08;;;;;;;9.85;4.10;;;16.70;61.60;;;;;;5098813;28;20322;-65
2023/11/30 09:51:35;;;;;;;8.57;4.22;;;16.70;61.30;;;;;;5105577;28;20046;-66
2023/11/30 09:54:01;;;;;;;7.05;4.22;;;16.60;61.40;;;;;;5099377;28;20028;-65
2023/11/30 09:56:27;;;;;;;9.18;3.70;;;16.60;61.40;;;;;;5106714;28;20107;-66
2023/11/30 09:58:54;;;;;;;10.15;4.20;;;16.60;61.70;;;;;;5099924;28;20039;-67
2023/11/30 10:01:20;;;;;;;7.85;4.28;;;16.60;61.50;;;;;;5105876;28;20035;-64
2023/11/30 10:03:46;;;;;;;7.28;3.40;;;16.50;61.60;;;;;;5100757;28;20032;-65
2023/11/30 10:06:12;;;;;;;8.55;4.15;;;16.50;61.70;;;;;;5097219;28;20470;-67
2023/11/30 10:08:41;;;;;;;7.32;3.63;;;16.50;61.60;;;;;;5102846;28;20036;-67
2023/11/30 10:11:07;;;;;;;7.18;3.25;;;16.50;61.70;;;;;;5103643;28;20063;-67
2023/11/30 10:13:36;;;;;;;6.45;2.80;;;16.50;61.70;;;;;;5100041;28;20024;-68
2023/11/30 10:16:02;;;;;;;7.22;3.22;;;16.50;61.90;;;;;;5103441;28;20081;-67
2023/11/30 10:18:28;;;;;;;7.70;3.58;;;16.50;61.90;;;;;;5103915;28;20036;-67
2023/11/30 10:20:54;;;;;;;5.78;3.42;;;16.40;61.90;;;;;;5102100;28;20081;-68
2023/11/30 10:23:20;;;;;;;5.15;3.17;;;16.40;61.90;;;;;;5101780;28;20028;-67
2023/11/30 10:25:46;;;;;;;8.38;3.60;;;16.40;62.10;;;;;;5105100;28;20031;-67
2023/11/30 10:28:13;;;;;;;4.70;3.20;;;16.40;62.10;;;;;;5102238;28;20024;-68
2023/11/30 10:30:41;;;;;;;6.72;3.25;;;16.40;62.20;;;;;;5090086;28;20044;-68
2023/11/30 10:33:12;;;;;;;8.00;3.50;;;16.40;62.20;;;;;;5096127;28;20123;-68
2023/11/30 10:35:43;;;;;;;7.60;3.35;;;16.30;62.10;;;;;;5104354;28;20087;-68
2023/11/30 10:38:18;;;;;;;8.40;2.92;;;16.30;62.20;;;;;;5103989;28;20032;-68
2023/11/30 10:40:47;;;;;;;5.45;2.80;;;16.30;62.20;;;;;;5106429;28;20044;-67
2023/11/30 10:43:12;;;;;;;5.38;2.80;;;16.30;62.20;;;;;;5105404;28;20032;-68
2023/11/30 10:45:39;;;;;;;7.35;3.95;;;16.30;62.30;;;;;;5105983;28;20114;-68
2023/11/30 10:48:10;;;;;;;6.18;3.22;;;16.20;62.30;;;;;;5100748;28;20035;-68
2023/11/30 10:50:36;;;;;;;6.97;3.67;;;16.20;62.30;;;;;;5101015;28;20031;-67
2023/11/30 10:53:08;;;;;;;5.85;2.40;;;16.20;62.20;;;;;;5103448;28;20406;-68
2023/11/30 10:55:33;;;;;;;5.22;2.97;;;16.20;62.40;;;;;;5103978;28;20458;-68
2023/11/30 10:58:03;;;;;;;4.00;2.50;;;16.20;62.30;;;;;;5101966;28;20106;-68
2023/11/30 11:00:34;;;;;;;6.00;2.60;;;16.20;62.50;;;;;;5098169;28;20085;-68
2023/11/30 11:03:07;;;;;;;5.47;2.67;;;16.20;62.40;;;;;;5099633;28;20023;-68
2023/11/30 11:05:32;;;;;;;5.93;2.80;;;16.10;62.30;;;;;;5098748;28;20367;-67
2023/11/30 11:07:59;;;;;;;5.47;2.92;;;16.10;62.30;;;;;;5099914;28;20047;-68
2023/11/30 11:10:27;;;;;;;5.40;2.92;;;16.10;62.40;;;;;;5101531;28;20115;-67
2023/11/30 11:12:58;;;;;;;5.45;2.97;;;16.10;62.40;;;;;;5103857;28;20522;-67
2023/11/30 11:15:27;;;;;;;5.35;2.78;;;16.10;62.40;;;;;;5101403;28;20309;-68
2023/11/30 11:17:54;;;;;;;6.32;2.88;;;16.10;62.40;;;;;;5097922;28;20028;-67
2023/11/30 11:20:20;;;;;;;4.90;2.65;;;16.10;62.40;;;;;;5101879;28;20031;-68
2023/11/30 11:22:46;;;;;;;4.75;2.55;;;16.10;62.40;;;;;;5104332;28;20020;-68
2023/11/30 11:25:11;;;;;;;6.85;2.92;;;16.10;62.40;;;;;;5099744;28;20130;-68
2023/11/30 11:27:37;;;;;;;5.97;2.92;;;16.10;62.40;;;;;;5094107;28;20032;-68
2023/11/30 11:30:07;;;;;;;5.40;2.72;;;16.10;62.50;;;;;;5081065;28;20036;-67
2023/11/30 11:32:34;;;;;;;4.05;2.50;;;16.00;62.50;;;;;;5103740;28;20032;-66
2023/11/30 11:35:05;;;;;;;5.88;2.70;;;16.00;62.50;;;;;;5096688;28;20118;-69
2023/11/30 11:37:30;;;;;;;5.38;2.63;;;16.00;62.50;;;;;;5102916;28;20106;-68
2023/11/30 11:39:56;;;;;;;4.03;2.70;;;16.00;62.50;;;;;;5095449;28;20114;-68
2023/11/30 11:42:22;;;;;;;4.35;2.25;;;16.00;62.60;;;;;;5100325;28;20039;-69
2023/11/30 11:44:50;;;;;;;5.20;2.63;;;16.00;62.50;;;;;;5102876;28;20521;-70
2023/11/30 11:47:15;;;;;;;5.15;2.50;;;16.00;62.50;;;;;;5100840;28;20048;-66
2023/11/30 11:49:41;;;;;;;5.32;2.38;;;16.00;62.60;;;;;;5095856;28;20034;-67
2023/11/30 11:52:06;;;;;;;5.10;2.85;;;16.00;62.60;;;;;;5098186;28;20166;-68
2023/11/30 11:54:32;;;;;;;7.57;2.10;;;15.90;62.60;;;;;;5095971;28;20032;-68
2023/11/30 11:56:57;;;;;;;7.95;3.08;;;15.90;62.60;;;;;;5097533;28;20513;-68
2023/11/30 11:59:29;;;;;;;3.38;2.13;;;15.90;62.70;;;;;;5098629;28;20020;-68
2023/11/30 12:01:56;;;;;;;3.90;2.00;;;15.90;62.70;;;;;;5096520;28;20397;-68
2023/11/30 12:04:33;;;;;;;2.78;1.83;;;15.90;62.80;;;;;;5101137;28;20050;-68
2023/11/30 12:07:00;;;;;;;4.45;2.40;;;15.90;62.80;;;;;;5098812;28;20338;-68
2023/11/30 12:09:25;;;;;;;3.97;2.38;;;15.90;62.80;;;;;;5095680;28;20035;-68
2023/11/30 12:11:51;;;;;;;3.30;2.28;;;15.80;62.80;;;;;;5098177;28;20024;-67
2023/11/30 12:14:20;;;;;;;3.38;1.98;;;15.90;62.90;;;;;;5100903;28;20129;-68
2023/11/30 12:16:45;;;;;;;3.55;1.95;;;15.80;62.90;;;;;;5086372;28;20055;-68
2023/11/30 12:19:11;;;;;;;3.40;1.90;;;15.80;62.90;;;;;;5094024;28;20506;-68
2023/11/30 12:21:36;;;;;;;4.78;2.20;;;15.80;63.00;;;;;;5100818;28;20518;-68
2023/11/30 12:24:02;;;;;;;3.50;2.13;;;15.80;62.90;;;;;;5105292;28;20035;-68
2023/11/30 12:26:28;;;;;;;2.80;2.13;;;15.80;62.90;;;;;;5102949;28;20096;-68
2023/11/30 12:28:55;;;;;;;3.20;2.08;;;15.80;62.90;;;;;;5098716;28;20036;-68
2023/11/30 12:31:22;;;;;;;3.45;2.13;;;15.80;62.90;;;;;;5101864;28;20049;-65
2023/11/30 12:33:47;;;;;;;2.78;2.25;;;15.80;63.00;;;;;;5100857;28;20039;-68
2023/11/30 12:36:14;;;;;;;4.80;1.95;;;15.80;62.90;;;;;;5096883;28;20048;-68
2023/11/30 12:38:39;;;;;;;2.38;1.60;;;15.80;63.00;;;;;;5102087;28;20051;-66